createdAt,value
2019-05-11T00:01:34.503Z,101289.34
2019-05-11T00:06:36.604Z,101282.81
2019-05-11T00:11:38.456Z,101281.48
2019-05-11T00:16:40.618Z,101274.20
2019-05-11T00:21:42.564Z,101268.58
2019-05-11T00:26:44.455Z,101261.68
2019-05-11T00:31:49.130Z,101252.40
2019-05-11T00:36:51.413Z,101254.43
2019-05-11T00:42:03.028Z,101254.53
2019-05-11T00:47:06.543Z,101250.21
2019-05-11T00:52:08.378Z,101235.61
2019-05-11T00:57:10.653Z,101245.36
2019-05-11T01:02:12.553Z,101245.36
2019-05-11T01:07:14.510Z,101253.22
2019-05-11T01:12:16.309Z,101253.22
2019-05-11T01:17:20.266Z,101258.70
2019-05-11T01:22:24.989Z,101263.64
2019-05-11T01:27:29.704Z,101261.79
2019-05-11T01:32:31.623Z,101259.38
2019-05-11T01:37:33.765Z,101251.71
2019-05-11T01:42:35.631Z,101251.71
2019-05-11T01:47:37.829Z,101256.44
2019-05-11T01:52:41.551Z,101252.77
2019-05-11T01:57:43.541Z,101254.80
2019-05-11T02:02:45.248Z,101251.34
2019-05-11T02:07:49.781Z,101248.27
2019-05-11T02:12:51.670Z,101249.44
2019-05-11T02:17:58.752Z,101249.09
2019-05-11T02:23:00.577Z,101255.23
2019-05-11T02:28:02.502Z,101255.06
2019-05-11T02:33:04.305Z,101256.85
2019-05-11T02:38:06.226Z,101260.42
2019-05-11T02:43:08.336Z,101267.59
2019-05-11T02:48:11.728Z,101271.84
2019-05-11T02:53:14.191Z,101277.28
2019-05-11T02:58:16.289Z,101277.80
2019-05-11T03:03:19.568Z,101276.87
2019-05-11T03:08:21.502Z,101274.45
2019-05-11T03:13:23.491Z,101274.21
2019-05-11T03:18:25.306Z,101280.98
2019-05-11T03:23:29.371Z,101278.78
2019-05-11T03:28:31.194Z,101285.22
2019-05-11T03:33:34.650Z,101284.45
2019-05-11T03:38:39.231Z,101291.02
2019-05-11T03:43:41.156Z,101298.88
2019-05-11T03:48:43.224Z,101307.52
2019-05-11T03:53:45.309Z,101306.21
2019-05-11T03:58:47.223Z,101306.68
2019-05-11T04:03:51.584Z,101312.74
2019-05-11T04:08:53.540Z,101311.88
2019-05-11T04:13:55.362Z,101318.16
2019-05-11T04:18:57.279Z,101323.83
2019-05-11T04:23:59.209Z,101322.27
2019-05-11T04:29:01.042Z,101320.16
2019-05-11T04:34:03.152Z,101324.40
2019-05-11T04:39:05.507Z,101333.73
2019-05-11T04:44:07.642Z,101336.51
2019-05-11T04:49:09.601Z,101341.55
2019-05-11T04:54:12.668Z,101344.15
2019-05-11T04:59:19.802Z,101338.52
2019-05-11T05:04:22.057Z,101343.03
2019-05-11T05:09:23.856Z,101348.30
2019-05-11T05:14:26.347Z,101353.61
2019-05-11T05:19:28.251Z,101352.81
2019-05-11T05:24:30.174Z,101371.34
2019-05-11T05:29:32.178Z,101366.55
2019-05-11T05:34:33.983Z,101376.39
2019-05-11T05:39:37.696Z,101381.47
2019-05-11T05:44:42.331Z,101394.06
2019-05-11T05:49:44.254Z,101395.16
2019-05-11T05:54:47.972Z,101391.14
2019-05-11T05:59:49.810Z,101406.05
2019-05-11T06:04:53.161Z,101400.59
2019-05-11T06:09:55.077Z,101399.41
2019-05-11T06:14:57.207Z,101402.98
2019-05-11T06:20:03.597Z,101410.66
2019-05-11T06:25:06.320Z,101415.11
2019-05-11T06:30:08.516Z,101425.17
2019-05-11T06:35:13.638Z,101434.20
2019-05-11T06:40:15.626Z,101436.66
2019-05-11T06:45:20.585Z,101449.27
2019-05-11T06:50:22.521Z,101454.83
2019-05-11T06:55:24.472Z,101458.19
2019-05-11T07:00:26.399Z,101468.66
2019-05-11T07:05:29.897Z,101482.92
2019-05-11T07:10:31.784Z,101478.98
2019-05-11T07:15:36.336Z,101476.81
2019-05-11T07:20:49.937Z,101486.31
2019-05-11T07:25:42.373Z,101494.70
2019-05-11T07:30:44.150Z,101500.41
2019-05-11T07:35:47.859Z,101512.77
2019-05-11T07:40:49.946Z,101521.39
2019-05-11T07:45:52.147Z,101533.06
2019-05-11T07:50:54.458Z,101528.73
2019-05-11T07:55:58.479Z,101527.72
2019-05-11T08:01:00.251Z,101526.67
2019-05-11T08:06:05.017Z,101537.73
2019-05-11T08:11:08.157Z,101537.83
2019-05-11T08:16:11.706Z,101541.78
2019-05-11T08:21:13.574Z,101552.06
2019-05-11T08:26:19.266Z,101550.78
2019-05-11T08:31:21.324Z,101562.32
2019-05-11T08:36:28.560Z,101570.70
2019-05-11T08:41:33.021Z,101573.92
2019-05-11T08:46:38.915Z,101586.37
2019-05-11T08:51:43.670Z,101587.66
2019-05-11T08:56:45.570Z,101605.19
2019-05-11T09:01:48.456Z,101605.97
2019-05-11T09:06:50.923Z,101619.45
2019-05-11T09:11:52.932Z,101628.13
2019-05-11T09:16:55.123Z,101640.34
2019-05-11T09:22:03.173Z,101636.53
2019-05-11T09:27:07.820Z,101641.06
2019-05-11T09:32:10.246Z,101643.95
2019-05-11T09:37:12.311Z,101649.37
2019-05-11T09:42:14.256Z,101649.78
2019-05-11T09:47:19.119Z,101655.98
2019-05-11T09:52:23.940Z,101663.16
2019-05-11T09:57:27.631Z,101667.70
2019-05-11T10:02:32.551Z,101672.06
2019-05-11T10:07:38.088Z,101683.95
2019-05-11T10:12:40.366Z,101686.64
2019-05-11T10:17:42.679Z,101696.42
2019-05-11T10:22:54.860Z,101699.65
2019-05-11T10:28:02.459Z,101701.49
2019-05-11T10:33:05.446Z,101705.73
2019-05-11T10:38:09.975Z,101718.50
2019-05-11T10:43:18.333Z,101715.56
2019-05-11T10:48:21.978Z,101725.74
2019-05-11T10:53:24.084Z,101737.12
2019-05-11T10:58:28.375Z,101737.69
2019-05-11T11:03:32.354Z,101742.03
2019-05-11T11:08:34.257Z,101751.00
2019-05-11T11:13:38.533Z,101763.80
2019-05-11T11:18:40.069Z,101765.01
2019-05-11T11:23:42.133Z,101764.93
2019-05-11T11:28:44.702Z,101777.39
2019-05-11T11:33:48.891Z,101769.97
2019-05-11T11:38:50.207Z,101766.78
2019-05-11T11:43:52.235Z,101773.19
2019-05-11T11:48:54.234Z,101793.57
2019-05-11T11:53:58.339Z,101801.59
2019-05-11T11:59:00.198Z,101801.56
2019-05-11T12:04:02.229Z,101808.00
2019-05-11T12:09:08.801Z,101813.53
2019-05-11T12:14:11.474Z,101817.95
2019-05-11T12:19:13.361Z,101835.02
2019-05-11T12:24:18.567Z,101839.27
2019-05-11T12:29:20.109Z,101851.72
2019-05-11T12:34:25.492Z,101870.77
2019-05-11T12:39:32.623Z,101874.55
2019-05-11T12:44:34.516Z,101874.02
2019-05-11T12:49:36.420Z,101880.14
2019-05-11T12:54:38.622Z,101893.16
2019-05-11T12:59:40.540Z,101899.47
2019-05-11T13:04:42.623Z,101904.08
2019-05-11T13:09:48.261Z,101918.01
2019-05-11T13:14:50.233Z,101927.66
2019-05-11T13:19:52.188Z,101936.05
2019-05-11T13:25:02.044Z,101944.91
2019-05-11T13:30:04.551Z,101948.98
2019-05-11T13:35:09.140Z,101963.18
2019-05-11T13:40:18.880Z,101976.27
2019-05-11T13:45:20.872Z,101983.03
2019-05-11T13:50:29.649Z,101984.46
2019-05-11T13:55:32.218Z,101993.80
2019-05-11T14:00:37.857Z,102001.94
2019-05-11T14:05:39.877Z,102000.17
2019-05-11T14:10:41.665Z,102012.88
2019-05-11T14:15:47.951Z,102030.95
2019-05-11T14:20:49.377Z,102048.11
2019-05-11T14:25:53.297Z,102058.06
2019-05-11T14:30:55.126Z,102057.07
2019-05-11T14:35:59.753Z,102068.14
2019-05-11T14:41:01.592Z,102075.85
2019-05-11T14:46:08.550Z,102089.88
2019-05-11T14:51:10.709Z,102100.98
2019-05-11T14:56:14.337Z,102120.07
2019-05-11T15:01:18.317Z,102129.69
2019-05-11T15:06:20.122Z,102138.20
2019-05-11T15:11:24.144Z,102148.33
2019-05-11T15:16:28.766Z,102146.36
2019-05-11T15:21:30.704Z,102171.42
2019-05-11T15:26:32.740Z,102184.69
2019-05-11T15:31:34.709Z,102199.25
2019-05-11T15:36:38.668Z,102207.20
2019-05-11T15:41:40.402Z,102212.41
2019-05-11T15:46:42.430Z,102209.89
2019-05-11T15:51:44.235Z,102223.92
2019-05-11T15:56:46.157Z,102241.77
2019-05-11T16:01:48.911Z,102245.48
2019-05-11T16:06:51.349Z,102255.75
2019-05-11T16:11:53.182Z,102258.69
2019-05-11T16:16:59.038Z,102271.95
2019-05-11T16:22:03.525Z,102278.24
2019-05-11T16:27:05.860Z,102299.01
2019-05-11T16:32:14.899Z,102317.63
2019-05-11T16:37:21.836Z,102326.13
2019-05-11T16:42:23.614Z,102341.20
2019-05-11T16:47:25.816Z,102340.16
2019-05-11T16:52:28.084Z,102340.42
2019-05-11T16:57:30.438Z,102377.27
2019-05-11T17:02:34.569Z,102375.56
2019-05-11T17:07:37.646Z,102374.38
2019-05-11T17:12:40.275Z,102382.73
2019-05-11T17:17:44.259Z,102386.53
2019-05-11T17:22:47.939Z,102396.04
2019-05-11T17:27:50.397Z,102401.29
2019-05-11T17:32:52.207Z,102418.52
2019-05-11T17:37:56.445Z,102427.67
2019-05-11T17:42:59.860Z,102430.32
2019-05-11T17:48:04.862Z,102436.96
2019-05-11T17:53:06.876Z,102446.49
2019-05-11T17:58:10.157Z,102447.97
2019-05-11T18:03:12.152Z,102456.00
2019-05-11T18:08:18.732Z,102465.89
2019-05-11T18:13:22.198Z,102483.88
2019-05-11T18:18:29.068Z,102491.44
2019-05-11T18:23:32.048Z,102490.00
2019-05-11T18:28:37.656Z,102507.38
2019-05-11T18:33:42.276Z,102515.27
2019-05-11T18:38:44.106Z,102528.72
2019-05-11T18:43:48.337Z,102527.62
2019-05-11T18:48:53.891Z,102537.64
2019-05-11T18:53:58.574Z,102555.69
2019-05-11T18:59:02.787Z,102561.11
2019-05-11T19:04:08.653Z,102571.16
2019-05-11T19:09:11.800Z,102584.41
2019-05-11T19:14:13.983Z,102597.22
2019-05-11T19:19:18.789Z,102602.05
2019-05-11T19:24:20.923Z,102607.16
2019-05-11T19:29:23.083Z,102610.41
2019-05-11T19:34:29.115Z,102621.03
2019-05-11T19:39:30.837Z,102633.51
2019-05-11T19:44:34.284Z,102645.25
2019-05-11T19:49:39.906Z,102649.20
2019-05-11T19:54:41.941Z,102654.78
2019-05-11T19:59:43.771Z,102672.52
2019-05-11T20:04:50.866Z,102675.46
2019-05-11T20:09:52.767Z,102683.13
2019-05-11T20:14:54.697Z,102687.34
2019-05-11T20:20:01.100Z,102690.37
2019-05-11T20:25:05.466Z,102696.64
2019-05-11T20:30:08.624Z,102706.83
2019-05-11T20:35:12.150Z,102722.69
2019-05-11T20:40:14.146Z,102728.16
2019-05-11T20:45:18.433Z,102738.17
2019-05-11T20:50:20.002Z,102738.72
2019-05-11T20:55:22.207Z,102747.11
2019-05-11T21:00:28.005Z,102749.38
2019-05-11T21:05:30.330Z,102765.97
2019-05-11T21:10:32.315Z,102767.67
2019-05-11T21:15:38.446Z,102769.00
2019-05-11T21:20:40.770Z,102783.94
2019-05-11T21:25:43.075Z,102787.80
2019-05-11T21:30:44.930Z,102793.94
2019-05-11T21:35:49.141Z,102809.16
2019-05-11T21:40:50.900Z,102816.31
2019-05-11T21:45:55.256Z,102825.32
2019-05-11T21:50:59.748Z,102832.46
2019-05-11T21:56:00.907Z,102843.33
2019-05-11T22:01:03.630Z,102851.25
2019-05-11T22:06:05.659Z,102858.84
2019-05-11T22:11:08.734Z,102859.11
2019-05-11T22:16:11.153Z,102873.14
2019-05-11T22:21:14.285Z,102881.12
2019-05-11T22:26:18.003Z,102881.09
2019-05-11T22:31:20.194Z,102887.81
2019-05-11T22:36:22.235Z,102886.20
2019-05-11T22:41:24.070Z,102896.22
2019-05-11T22:46:28.096Z,102902.68
2019-05-11T22:51:31.782Z,102904.21
2019-05-11T22:56:34.739Z,102915.06
2019-05-11T23:01:37.830Z,102917.44
2019-05-11T23:06:40.639Z,102922.83
2019-05-11T23:11:42.910Z,102919.14
2019-05-11T23:16:49.702Z,102936.73
2019-05-11T23:21:50.434Z,102946.81
2019-05-11T23:26:53.545Z,102951.63
2019-05-11T23:31:55.459Z,102950.70
2019-05-11T23:36:59.184Z,102962.36
2019-05-11T23:42:03.411Z,102969.67
2019-05-11T23:47:05.322Z,102985.15
2019-05-11T23:52:07.784Z,102990.33
2019-05-11T23:57:09.999Z,102983.22
